Alegria — LE9325 — position and weather

sailwx.info

Track history (hours):
 
Tides and Currents Weather Stations Pressure Air Temp Water Temp Dewpoint Dewpoint Depression Visibility Wind Speed Wind Dir Waves Ship Positions

Alegria

Last reported at 2016-Jun-06 16:32 UTC. Time now 2016-Jun-26 02:57 UTC.
Position N 59°03' E 010°22'.
Warning: this ship's position is 19 days out of date.

Length 11 m.

Type: Pleasure craft. MMSI: 258532510.

Date/timePositionNaut miles runAvg speedWind from/ knotsBaromVisibWave heightAir tempDewpointWater temp
2016-Jun-06 16:32N 59°03' E 010°22'7 4.9
2016-Jun-06 15:11N 59°01' E 010°34'3 5.5
2016-Jun-06 14:33N 59°01' E 010°41'5 5.2
2016-Jun-06 13:33N 59°01' E 010°51'8 3.4
2016-Jun-06 11:15N 59°08' E 010°58'3 4.4
2016-Jun-06 10:29N 59°11' E 010°57'  
2016-May-30 14:30N 59°11' E 010°57'3 3.2
2016-May-30 13:33N 59°08' E 010°54'4 3.9
2016-May-30 12:32N 59°09' E 010°47'5 4.9
2016-May-30 11:33N 59°14' E 010°43'4 4.1
2016-May-30 10:28N 59°18' E 010°42'  
Track history (hours):
 
Tides and Currents Weather Stations Pressure Air Temp Water Temp Dewpoint Dewpoint Depression Visibility Wind Speed Wind Dir Waves Ship Positions

Alegria

Last reported at 2016-Jun-06 16:32 UTC. Time now 2016-Jun-26 02:57 UTC.
Position N 59°03' E 010°22'.
Warning: this ship's position is 19 days out of date.

Length 11 m.

Type: Pleasure craft. MMSI: 258532510.

Date/timePositionNaut miles runAvg speedWind from/ knotsBaromVisibWave heightAir tempDewpointWater temp
2016-Jun-06 16:32N 59°03' E 010°22'7 4.9
2016-Jun-06 15:11N 59°01' E 010°34'3 5.5
2016-Jun-06 14:33N 59°01' E 010°41'5 5.2
2016-Jun-06 13:33N 59°01' E 010°51'8 3.4
2016-Jun-06 11:15N 59°08' E 010°58'3 4.4
2016-Jun-06 10:29N 59°11' E 010°57'  
2016-May-30 14:30N 59°11' E 010°57'3 3.2
2016-May-30 13:33N 59°08' E 010°54'4 3.9
2016-May-30 12:32N 59°09' E 010°47'5 4.9
2016-May-30 11:33N 59°14' E 010°43'4 4.1
2016-May-30 10:28N 59°18' E 010°42'  

Dump ship's entire track history